sensor_id;sensor_type;location;lat;lon;timestamp;pressure;altitude;pressure_sealevel;temperature;humidity
71805;BME280;59654;52.216;5.616;2022-07-25T00:00:08;100914.19;;;19.42;79.97
71805;BME280;59654;52.216;5.616;2022-07-25T00:00:40;100910.78;;;19.40;80.39
71805;BME280;59654;52.216;5.616;2022-07-25T00:01:11;100909.91;;;19.40;79.93
71805;BME280;59654;52.216;5.616;2022-07-25T00:01:42;100913.59;;;19.39;79.91
71805;BME280;59654;52.216;5.616;2022-07-25T00:02:13;100909.28;;;19.36;80.18
71805;BME280;59654;52.216;5.616;2022-07-25T00:02:44;100908.41;;;19.36;80.19
71805;BME280;59654;52.216;5.616;2022-07-25T00:03:15;100904.84;;;19.35;80.28
71805;BME280;59654;52.216;5.616;2022-07-25T00:03:46;100908.50;;;19.34;80.14
71805;BME280;59654;52.216;5.616;2022-07-25T00:04:17;100912.94;;;19.35;80.13
71805;BME280;59654;52.216;5.616;2022-07-25T00:04:47;100906.69;;;19.34;79.93
71805;BME280;59654;52.216;5.616;2022-07-25T00:05:18;100903.22;;;19.32;80.04
71805;BME280;59654;52.216;5.616;2022-07-25T00:05:49;100907.75;;;19.32;80.30
71805;BME280;59654;52.216;5.616;2022-07-25T00:06:20;100904.19;;;19.31;80.20
71805;BME280;59654;52.216;5.616;2022-07-25T00:06:50;100905.91;;;19.32;80.62
71805;BME280;59654;52.216;5.616;2022-07-25T00:07:21;100900.63;;;19.31;79.80
71805;BME280;59654;52.216;5.616;2022-07-25T00:07:52;100904.19;;;19.31;79.99
71805;BME280;59654;52.216;5.616;2022-07-25T00:08:23;100908.63;;;19.32;80.24
71805;BME280;59654;52.216;5.616;2022-07-25T00:08:54;100892.41;;;19.32;79.91
71805;BME280;59654;52.216;5.616;2022-07-25T00:09:24;100895.84;;;19.34;79.50
71805;BME280;59654;52.216;5.616;2022-07-25T00:09:55;100893.16;;;19.34;79.78
71805;BME280;59654;52.216;5.616;2022-07-25T00:10:26;100900.41;;;19.34;79.57
71805;BME280;59654;52.216;5.616;2022-07-25T00:10:57;100895.84;;;19.34;79.88
71805;BME280;59654;52.216;5.616;2022-07-25T00:11:28;100895.00;;;19.34;79.79
71805;BME280;59654;52.216;5.616;2022-07-25T00:11:58;100897.81;;;19.32;79.85
71805;BME280;59654;52.216;5.616;2022-07-25T00:12:29;100887.84;;;19.33;80.18
71805;BME280;59654;52.216;5.616;2022-07-25T00:13:00;100894.13;;;19.33;80.00
71805;BME280;59654;52.216;5.616;2022-07-25T00:13:31;100893.16;;;19.34;80.12
71805;BME280;59654;52.216;5.616;2022-07-25T00:14:02;100887.84;;;19.33;79.63
71805;BME280;59654;52.216;5.616;2022-07-25T00:14:34;100887.00;;;19.32;79.83
71805;BME280;59654;52.216;5.616;2022-07-25T00:15:05;100899.66;;;19.32;79.86
71805;BME280;59654;52.216;5.616;2022-07-25T00:15:36;100886.03;;;19.33;79.67
71805;BME280;59654;52.216;5.616;2022-07-25T00:16:07;100887.00;;;19.32;79.90
71805;BME280;59654;52.216;5.616;2022-07-25T00:16:37;100885.16;;;19.33;79.46
71805;BME280;59654;52.216;5.616;2022-07-25T00:17:09;100886.13;;;19.32;79.78
71805;BME280;59654;52.216;5.616;2022-07-25T00:17:40;100882.66;;;19.30;79.60
71805;BME280;59654;52.216;5.616;2022-07-25T00:18:11;100882.66;;;19.30;79.59
71805;BME280;59654;52.216;5.616;2022-07-25T00:18:42;100891.66;;;19.30;79.79
71805;BME280;59654;52.216;5.616;2022-07-25T00:19:13;100876.41;;;19.29;79.51
71805;BME280;59654;52.216;5.616;2022-07-25T00:19:43;100874.66;;;19.28;79.46
71805;BME280;59654;52.216;5.616;2022-07-25T00:20:14;100879.09;;;19.29;79.20
71805;BME280;59654;52.216;5.616;2022-07-25T00:20:46;100881.81;;;19.29;79.39
71805;BME280;59654;52.216;5.616;2022-07-25T00:21:16;100879.09;;;19.29;79.30
71805;BME280;59654;52.216;5.616;2022-07-25T00:21:47;100873.69;;;19.29;79.34
71805;BME280;59654;52.216;5.616;2022-07-25T00:22:18;100876.41;;;19.29;80.03
71805;BME280;59654;52.216;5.616;2022-07-25T00:22:49;100879.09;;;19.29;79.69
71805;BME280;59654;52.216;5.616;2022-07-25T00:23:20;100881.81;;;19.29;79.82
71805;BME280;59654;52.216;5.616;2022-07-25T00:23:50;100877.25;;;19.30;79.61
71805;BME280;59654;52.216;5.616;2022-07-25T00:24:21;100877.25;;;19.30;79.67
71805;BME280;59654;52.216;5.616;2022-07-25T00:24:52;100867.44;;;19.29;79.65
71805;BME280;59654;52.216;5.616;2022-07-25T00:25:23;100876.41;;;19.29;79.94
71805;BME280;59654;52.216;5.616;2022-07-25T00:25:53;100880.06;;;19.28;79.60
71805;BME280;59654;52.216;5.616;2022-07-25T00:26:24;100868.41;;;19.28;79.48
71805;BME280;59654;52.216;5.616;2022-07-25T00:26:55;100876.50;;;19.28;79.18
71805;BME280;59654;52.216;5.616;2022-07-25T00:27:26;100866.44;;;19.30;78.92
71805;BME280;59654;52.216;5.616;2022-07-25T00:27:56;100875.44;;;19.30;79.09
71805;BME280;59654;52.216;5.616;2022-07-25T00:28:27;100871.84;;;19.30;78.74
71805;BME280;59654;52.216;5.616;2022-07-25T00:28:58;100865.38;;;19.32;79.03
71805;BME280;59654;52.216;5.616;2022-07-25T00:29:29;100862.66;;;19.32;78.76
71805;BME280;59654;52.216;5.616;2022-07-25T00:30:00;100862.66;;;19.32;79.63
71805;BME280;59654;52.216;5.616;2022-07-25T00:30:31;100868.94;;;19.33;78.71
71805;BME280;59654;52.216;5.616;2022-07-25T00:31:02;100862.53;;;19.34;79.08
71805;BME280;59654;52.216;5.616;2022-07-25T00:31:32;100865.13;;;19.36;79.05
71805;BME280;59654;52.216;5.616;2022-07-25T00:32:03;100867.84;;;19.36;79.52
71805;BME280;59654;52.216;5.616;2022-07-25T00:32:35;100862.44;;;19.36;79.54
71805;BME280;59654;52.216;5.616;2022-07-25T00:33:05;100865.91;;;19.38;79.60
71805;BME280;59654;52.216;5.616;2022-07-25T00:33:36;100865.03;;;19.37;79.19
71805;BME280;59654;52.216;5.616;2022-07-25T00:34:09;100859.50;;;19.39;79.20
71805;BME280;59654;52.216;5.616;2022-07-25T00:34:40;100865.03;;;19.37;78.97
71805;BME280;59654;52.216;5.616;2022-07-25T00:35:11;100859.50;;;19.39;78.25
71805;BME280;59654;52.216;5.616;2022-07-25T00:35:42;100862.94;;;19.41;78.87
71805;BME280;59654;52.216;5.616;2022-07-25T00:36:12;100857.41;;;19.42;79.07
71805;BME280;59654;52.216;5.616;2022-07-25T00:36:43;100852.13;;;19.41;79.08
71805;BME280;59654;52.216;5.616;2022-07-25T00:37:14;100850.41;;;19.40;78.54
71805;BME280;59654;52.216;5.616;2022-07-25T00:37:45;100854.09;;;19.39;78.65
71805;BME280;59654;52.216;5.616;2022-07-25T00:38:15;100856.69;;;19.40;78.28
71805;BME280;59654;52.216;5.616;2022-07-25T00:38:46;100849.56;;;19.39;78.44
71805;BME280;59654;52.216;5.616;2022-07-25T00:39:17;100848.69;;;19.39;78.42
71805;BME280;59654;52.216;5.616;2022-07-25T00:39:48;100845.13;;;19.38;78.87
71805;BME280;59654;52.216;5.616;2022-07-25T00:40:18;100854.09;;;19.39;78.63
71805;BME280;59654;52.216;5.616;2022-07-25T00:40:49;100847.72;;;19.40;78.31
71805;BME280;59654;52.216;5.616;2022-07-25T00:41:20;100848.69;;;19.39;77.96
71805;BME280;59654;52.216;5.616;2022-07-25T00:41:51;100851.28;;;19.40;78.43
71805;BME280;59654;52.216;5.616;2022-07-25T00:42:22;100844.00;;;19.41;78.71
71805;BME280;59654;52.216;5.616;2022-07-25T00:42:53;100846.59;;;19.42;78.74
71805;BME280;59654;52.216;5.616;2022-07-25T00:43:24;100850.16;;;19.43;78.48
71805;BME280;59654;52.216;5.616;2022-07-25T00:43:54;100844.00;;;19.41;78.52
71805;BME280;59654;52.216;5.616;2022-07-25T00:44:29;100843.03;;;19.42;78.58
71805;BME280;59654;52.216;5.616;2022-07-25T00:45:00;100839.47;;;19.41;78.79
71805;BME280;59654;52.216;5.616;2022-07-25T00:45:31;100844.75;;;19.43;78.76
71805;BME280;59654;52.216;5.616;2022-07-25T00:46:02;100844.75;;;19.43;79.11
71805;BME280;59654;52.216;5.616;2022-07-25T00:46:37;100839.34;;;19.43;78.71
71805;BME280;59654;52.216;5.616;2022-07-25T00:47:08;100843.88;;;19.42;78.60
71805;BME280;59654;52.216;5.616;2022-07-25T00:47:39;100838.38;;;19.44;78.39
71805;BME280;59654;52.216;5.616;2022-07-25T00:48:10;100840.22;;;19.43;78.25
71805;BME280;59654;52.216;5.616;2022-07-25T00:48:43;100839.22;;;19.44;78.27
71805;BME280;59654;52.216;5.616;2022-07-25T00:49:14;100839.22;;;19.44;78.05
71805;BME280;59654;52.216;5.616;2022-07-25T00:49:45;100837.38;;;19.45;78.15
71805;BME280;59654;52.216;5.616;2022-07-25T00:50:15;100830.25;;;19.44;78.48
71805;BME280;59654;52.216;5.616;2022-07-25T00:50:46;100836.53;;;19.44;78.38
71805;BME280;59654;52.216;5.616;2022-07-25T00:51:17;100843.66;;;19.45;78.38
71805;BME280;59654;52.216;5.616;2022-07-25T00:51:49;100844.53;;;19.46;78.78
71805;BME280;59654;52.216;5.616;2022-07-25T00:52:21;100837.50;;;19.43;78.60
71805;BME280;59654;52.216;5.616;2022-07-25T00:52:54;100839.22;;;19.44;78.74
71805;BME280;59654;52.216;5.616;2022-07-25T00:53:25;100835.66;;;19.44;79.04
71805;BME280;59654;52.216;5.616;2022-07-25T00:53:56;100840.22;;;19.43;78.98
71805;BME280;59654;52.216;5.616;2022-07-25T00:54:27;100838.47;;;19.42;79.34
71805;BME280;59654;52.216;5.616;2022-07-25T00:54:59;100841.94;;;19.44;79.05
71805;BME280;59654;52.216;5.616;2022-07-25T00:55:31;100841.94;;;19.44;79.07
71805;BME280;59654;52.216;5.616;2022-07-25T00:56:04;100831.13;;;19.44;78.94
71805;BME280;59654;52.216;5.616;2022-07-25T00:56:36;100833.94;;;19.43;79.06
71805;BME280;59654;52.216;5.616;2022-07-25T00:57:08;100830.38;;;19.42;79.46
71805;BME280;59654;52.216;5.616;2022-07-25T00:57:38;100835.78;;;19.42;79.07
71805;BME280;59654;52.216;5.616;2022-07-25T00:58:09;100829.50;;;19.42;78.85
71805;BME280;59654;52.216;5.616;2022-07-25T00:58:40;100834.03;;;19.41;78.36
71805;BME280;59654;52.216;5.616;2022-07-25T00:59:11;100829.75;;;19.39;78.21
71805;BME280;59654;52.216;5.616;2022-07-25T00:59:42;100829.00;;;19.37;78.75
71805;BME280;59654;52.216;5.616;2022-07-25T01:00:14;100838.09;;;19.36;78.71
71805;BME280;59654;52.216;5.616;2022-07-25T01:00:46;100822.75;;;19.36;78.44
71805;BME280;59654;52.216;5.616;2022-07-25T01:01:17;100825.56;;;19.34;78.72
71805;BME280;59654;52.216;5.616;2022-07-25T01:01:48;100822.97;;;19.33;79.29
71805;BME280;59654;52.216;5.616;2022-07-25T01:02:19;100817.56;;;19.33;79.38
71805;BME280;59654;52.216;5.616;2022-07-25T01:02:50;100827.63;;;19.31;79.33
71805;BME280;59654;52.216;5.616;2022-07-25T01:03:21;100823.06;;;19.31;79.00
71805;BME280;59654;52.216;5.616;2022-07-25T01:03:51;100823.94;;;19.32;78.79
71805;BME280;59654;52.216;5.616;2022-07-25T01:04:22;100821.13;;;19.33;78.47
71805;BME280;59654;52.216;5.616;2022-07-25T01:04:53;100820.25;;;19.33;78.28
71805;BME280;59654;52.216;5.616;2022-07-25T01:05:26;100816.81;;;19.31;78.55
71805;BME280;59654;52.216;5.616;2022-07-25T01:05:57;100815.19;;;19.28;79.01
71805;BME280;59654;52.216;5.616;2022-07-25T01:06:28;100822.31;;;19.29;78.70
71805;BME280;59654;52.216;5.616;2022-07-25T01:06:59;100819.72;;;19.28;78.61
71805;BME280;59654;52.216;5.616;2022-07-25T01:07:30;100819.84;;;19.26;78.83
71805;BME280;59654;52.216;5.616;2022-07-25T01:08:03;100810.88;;;19.26;78.93
71805;BME280;59654;52.216;5.616;2022-07-25T01:08:34;100817.25;;;19.25;79.12
71805;BME280;59654;52.216;5.616;2022-07-25T01:09:06;100813.06;;;19.21;79.44
71805;BME280;59654;52.216;5.616;2022-07-25T01:09:37;100814.16;;;19.18;79.33
71805;BME280;59654;52.216;5.616;2022-07-25T01:10:08;100814.38;;;19.15;80.02
71805;BME280;59654;52.216;5.616;2022-07-25T01:10:39;100806.38;;;19.14;79.84
71805;BME280;59654;52.216;5.616;2022-07-25T01:11:11;100808.34;;;19.12;79.89
71805;BME280;59654;52.216;5.616;2022-07-25T01:11:41;100806.63;;;19.11;79.51
71805;BME280;59654;52.216;5.616;2022-07-25T01:12:12;100809.44;;;19.09;79.72
71805;BME280;59654;52.216;5.616;2022-07-25T01:12:51;100806.97;;;19.06;79.97
71805;BME280;59654;52.216;5.616;2022-07-25T01:13:23;100806.22;;;19.04;79.75
71805;BME280;59654;52.216;5.616;2022-07-25T01:13:54;100804.50;;;19.03;79.91
71805;BME280;59654;52.216;5.616;2022-07-25T01:14:25;100801.91;;;19.02;80.09
71805;BME280;59654;52.216;5.616;2022-07-25T01:14:56;100801.03;;;19.01;80.10
71805;BME280;59654;52.216;5.616;2022-07-25T01:15:28;100803.75;;;19.01;80.50
71805;BME280;59654;52.216;5.616;2022-07-25T01:15:59;100802.88;;;19.01;80.44
71805;BME280;59654;52.216;5.616;2022-07-25T01:16:30;100802.00;;;19.00;80.22
71805;BME280;59654;52.216;5.616;2022-07-25T01:17:01;100804.72;;;19.00;80.41
71805;BME280;59654;52.216;5.616;2022-07-25T01:17:31;100802.00;;;19.00;80.28
71805;BME280;59654;52.216;5.616;2022-07-25T01:18:02;100797.38;;;19.02;79.98
71805;BME280;59654;52.216;5.616;2022-07-25T01:18:33;100799.09;;;19.03;80.63
71805;BME280;59654;52.216;5.616;2022-07-25T01:19:04;100791.97;;;19.02;80.44
71805;BME280;59654;52.216;5.616;2022-07-25T01:19:35;100788.28;;;19.03;80.71
71805;BME280;59654;52.216;5.616;2022-07-25T01:20:15;100792.81;;;19.03;80.39
71805;BME280;59654;52.216;5.616;2022-07-25T01:20:50;100788.50;;;19.00;80.21
71805;BME280;59654;52.216;5.616;2022-07-25T01:21:22;100793.03;;;18.99;80.26
71805;BME280;59654;52.216;5.616;2022-07-25T01:21:54;100786.00;;;18.97;80.63
71805;BME280;59654;52.216;5.616;2022-07-25T01:22:25;100796.69;;;18.98;80.76
71805;BME280;59654;52.216;5.616;2022-07-25T01:22:57;100796.69;;;18.98;80.52
71805;BME280;59654;52.216;5.616;2022-07-25T01:23:29;100789.66;;;18.96;80.93
71805;BME280;59654;52.216;5.616;2022-07-25T01:23:59;100795.94;;;18.96;81.12
71805;BME280;59654;52.216;5.616;2022-07-25T01:24:32;100794.09;;;18.97;80.94
71805;BME280;59654;52.216;5.616;2022-07-25T01:25:04;100799.50;;;18.97;80.65
71805;BME280;59654;52.216;5.616;2022-07-25T01:25:35;100791.50;;;18.95;81.05
71805;BME280;59654;52.216;5.616;2022-07-25T01:26:06;100795.94;;;18.96;80.87
71805;BME280;59654;52.216;5.616;2022-07-25T01:26:37;100797.78;;;18.96;80.22
71805;BME280;59654;52.216;5.616;2022-07-25T01:27:08;100796.03;;;18.95;80.25
71805;BME280;59654;52.216;5.616;2022-07-25T01:27:40;100792.38;;;18.96;80.49
71805;BME280;59654;52.216;5.616;2022-07-25T01:28:11;100791.50;;;18.95;80.76
71805;BME280;59654;52.216;5.616;2022-07-25T01:28:42;100788.81;;;18.95;80.84
71805;BME280;59654;52.216;5.616;2022-07-25T01:29:13;100795.06;;;18.96;80.57
71805;BME280;59654;52.216;5.616;2022-07-25T01:29:44;100791.41;;;18.97;80.90
71805;BME280;59654;52.216;5.616;2022-07-25T01:30:15;100793.22;;;18.96;80.87
71805;BME280;59654;52.216;5.616;2022-07-25T01:30:46;100794.09;;;18.97;80.97
71805;BME280;59654;52.216;5.616;2022-07-25T01:31:17;100795.19;;;18.94;81.24
71805;BME280;59654;52.216;5.616;2022-07-25T01:31:48;100794.31;;;18.94;80.70
71805;BME280;59654;52.216;5.616;2022-07-25T01:32:19;100795.19;;;18.94;80.41
71805;BME280;59654;52.216;5.616;2022-07-25T01:32:50;100794.31;;;18.94;80.84
71805;BME280;59654;52.216;5.616;2022-07-25T01:33:21;100793.44;;;18.93;79.87
71805;BME280;59654;52.216;5.616;2022-07-25T01:33:52;100791.63;;;18.94;80.10
71805;BME280;59654;52.216;5.616;2022-07-25T01:34:23;100793.22;;;18.96;79.78
71805;BME280;59654;52.216;5.616;2022-07-25T01:34:54;100794.09;;;18.97;80.00
71805;BME280;59654;52.216;5.616;2022-07-25T01:35:24;100789.56;;;18.97;80.10
71805;BME280;59654;52.216;5.616;2022-07-25T01:35:55;100788.69;;;18.97;80.18
71805;BME280;59654;52.216;5.616;2022-07-25T01:36:26;100786.84;;;18.97;79.93
71805;BME280;59654;52.216;5.616;2022-07-25T01:36:57;100783.28;;;18.97;80.30
71805;BME280;59654;52.216;5.616;2022-07-25T01:37:28;100787.72;;;18.98;80.17
71805;BME280;59654;52.216;5.616;2022-07-25T01:37:59;100779.53;;;18.99;80.09
71805;BME280;59654;52.216;5.616;2022-07-25T01:38:29;100778.63;;;18.99;79.87
71805;BME280;59654;52.216;5.616;2022-07-25T01:39:00;100785.69;;;19.02;79.60
71805;BME280;59654;52.216;5.616;2022-07-25T01:39:31;100788.50;;;19.00;79.23
71805;BME280;59654;52.216;5.616;2022-07-25T01:40:03;100785.69;;;19.02;79.35
71805;BME280;59654;52.216;5.616;2022-07-25T01:40:34;100784.59;;;19.04;79.63
71805;BME280;59654;52.216;5.616;2022-07-25T01:41:05;100781.91;;;19.04;79.88
71805;BME280;59654;52.216;5.616;2022-07-25T01:41:36;100780.06;;;19.05;79.88
71805;BME280;59654;52.216;5.616;2022-07-25T01:42:07;100787.19;;;19.06;80.15
71805;BME280;59654;52.216;5.616;2022-07-25T01:42:38;100779.09;;;19.06;80.19
71805;BME280;59654;52.216;5.616;2022-07-25T01:43:09;100777.25;;;19.06;79.79
71805;BME280;59654;52.216;5.616;2022-07-25T01:43:40;100774.53;;;19.06;80.08
71805;BME280;59654;52.216;5.616;2022-07-25T01:44:10;100776.50;;;19.04;80.07
71805;BME280;59654;52.216;5.616;2022-07-25T01:44:41;100774.66;;;19.05;80.16
71805;BME280;59654;52.216;5.616;2022-07-25T01:45:12;100778.09;;;19.07;79.85
71805;BME280;59654;52.216;5.616;2022-07-25T01:45:43;100778.09;;;19.07;80.22
71805;BME280;59654;52.216;5.616;2022-07-25T01:46:14;100774.66;;;19.05;81.16
71805;BME280;59654;52.216;5.616;2022-07-25T01:46:45;100773.78;;;19.04;80.58
71805;BME280;59654;52.216;5.616;2022-07-25T01:47:16;100772.94;;;19.04;80.35
71805;BME280;59654;52.216;5.616;2022-07-25T01:47:46;100770.22;;;19.04;81.08
71805;BME280;59654;52.216;5.616;2022-07-25T01:48:17;100779.31;;;19.03;80.99
71805;BME280;59654;52.216;5.616;2022-07-25T01:48:48;100772.06;;;19.03;80.96
71805;BME280;59654;52.216;5.616;2022-07-25T01:49:19;100773.91;;;19.03;80.85
71805;BME280;59654;52.216;5.616;2022-07-25T01:49:49;100773.03;;;19.02;80.58
71805;BME280;59654;52.216;5.616;2022-07-25T01:50:20;100777.47;;;19.03;81.22
71805;BME280;59654;52.216;5.616;2022-07-25T01:50:51;100774.00;;;19.01;81.18
71805;BME280;59654;52.216;5.616;2022-07-25T01:51:22;100778.44;;;19.02;80.90
71805;BME280;59654;52.216;5.616;2022-07-25T01:51:53;100773.91;;;19.03;81.29
71805;BME280;59654;52.216;5.616;2022-07-25T01:52:24;100772.94;;;19.04;80.91
71805;BME280;59654;52.216;5.616;2022-07-25T01:52:55;100770.22;;;19.04;81.42
71805;BME280;59654;52.216;5.616;2022-07-25T01:53:26;100770.13;;;19.05;81.63
71805;BME280;59654;52.216;5.616;2022-07-25T01:53:57;100775.41;;;19.07;81.56
71805;BME280;59654;52.216;5.616;2022-07-25T01:54:27;100772.81;;;19.05;81.55
71805;BME280;59654;52.216;5.616;2022-07-25T01:54:58;100771.84;;;19.06;81.60
71805;BME280;59654;52.216;5.616;2022-07-25T01:55:29;100771.84;;;19.06;81.75
71805;BME280;59654;52.216;5.616;2022-07-25T01:56:00;100768.28;;;19.06;81.30
71805;BME280;59654;52.216;5.616;2022-07-25T01:56:30;100768.28;;;19.06;81.51
71805;BME280;59654;52.216;5.616;2022-07-25T01:57:01;100767.41;;;19.05;81.26
71805;BME280;59654;52.216;5.616;2022-07-25T01:57:35;100764.72;;;19.05;80.72
71805;BME280;59654;52.216;5.616;2022-07-25T01:58:06;100765.56;;;19.06;81.32
71805;BME280;59654;52.216;5.616;2022-07-25T01:58:37;100758.44;;;19.05;80.73
71805;BME280;59654;52.216;5.616;2022-07-25T01:59:07;100763.84;;;19.05;81.18
71805;BME280;59654;52.216;5.616;2022-07-25T01:59:39;100757.47;;;19.06;80.73
71805;BME280;59654;52.216;5.616;2022-07-25T02:00:12;100766.53;;;19.05;80.73
71805;BME280;59654;52.216;5.616;2022-07-25T02:00:44;100755.75;;;19.05;80.60
71805;BME280;59654;52.216;5.616;2022-07-25T02:01:15;100762.00;;;19.05;81.32
71805;BME280;59654;52.216;5.616;2022-07-25T02:01:46;100760.16;;;19.06;81.15
71805;BME280;59654;52.216;5.616;2022-07-25T02:02:16;100762.88;;;19.06;81.48
71805;BME280;59654;52.216;5.616;2022-07-25T02:02:47;100756.59;;;19.05;81.10
71805;BME280;59654;52.216;5.616;2022-07-25T02:03:18;100759.31;;;19.05;81.51
71805;BME280;59654;52.216;5.616;2022-07-25T02:04:01;100757.34;;;19.07;81.39
71805;BME280;59654;52.216;5.616;2022-07-25T02:04:33;100753.63;;;19.08;80.89
71805;BME280;59654;52.216;5.616;2022-07-25T02:05:06;100756.50;;;19.07;81.01
71805;BME280;59654;52.216;5.616;2022-07-25T02:05:38;100761.63;;;19.10;81.45
71805;BME280;59654;52.216;5.616;2022-07-25T02:06:08;100759.91;;;19.09;80.97
71805;BME280;59654;52.216;5.616;2022-07-25T02:06:39;100757.22;;;19.09;80.68
71805;BME280;59654;52.216;5.616;2022-07-25T02:07:13;100756.22;;;19.10;80.87
71805;BME280;59654;52.216;5.616;2022-07-25T02:07:44;100758.06;;;19.09;80.40
71805;BME280;59654;52.216;5.616;2022-07-25T02:08:14;100761.75;;;19.08;80.72
71805;BME280;59654;52.216;5.616;2022-07-25T02:08:45;100758.06;;;19.09;80.13
71805;BME280;59654;52.216;5.616;2022-07-25T02:09:16;100757.97;;;19.11;80.23
71805;BME280;59654;52.216;5.616;2022-07-25T02:09:47;100758.06;;;19.09;80.29
71805;BME280;59654;52.216;5.616;2022-07-25T02:10:17;100756.97;;;19.12;80.03
71805;BME280;59654;52.216;5.616;2022-07-25T02:10:48;100760.56;;;19.12;80.45
71805;BME280;59654;52.216;5.616;2022-07-25T02:11:19;100752.44;;;19.12;80.68
71805;BME280;59654;52.216;5.616;2022-07-25T02:11:50;100755.03;;;19.14;80.70
71805;BME280;59654;52.216;5.616;2022-07-25T02:12:21;100761.53;;;19.11;81.80
71805;BME280;59654;52.216;5.616;2022-07-25T02:12:52;100757.09;;;19.10;81.50
71805;BME280;59654;52.216;5.616;2022-07-25T02:13:24;100758.31;;;19.06;81.67
71805;BME280;59654;52.216;5.616;2022-07-25T02:13:54;100761.38;;;19.02;81.55
71805;BME280;59654;52.216;5.616;2022-07-25T02:14:25;100763.84;;;18.92;81.77
71805;BME280;59654;52.216;5.616;2022-07-25T02:14:56;100764.00;;;18.78;81.94
71805;BME280;59654;52.216;5.616;2022-07-25T02:15:27;100761.34;;;18.65;82.08
71805;BME280;59654;52.216;5.616;2022-07-25T02:15:58;100767.66;;;18.53;82.56
71805;BME280;59654;52.216;5.616;2022-07-25T02:16:29;100759.34;;;18.43;82.53
71805;BME280;59654;52.216;5.616;2022-07-25T02:17:00;100760.88;;;18.35;83.14
71805;BME280;59654;52.216;5.616;2022-07-25T02:17:31;100758.41;;;18.32;82.83
71805;BME280;59654;52.216;5.616;2022-07-25T02:18:01;100755.91;;;18.28;83.66
71805;BME280;59654;52.216;5.616;2022-07-25T02:18:32;100746.94;;;18.28;84.45
71805;BME280;59654;52.216;5.616;2022-07-25T02:19:03;100750.50;;;18.28;84.63
71805;BME280;59654;52.216;5.616;2022-07-25T02:19:35;100740.59;;;18.29;83.58
71805;BME280;59654;52.216;5.616;2022-07-25T02:20:06;100744.78;;;18.33;84.38
71805;BME280;59654;52.216;5.616;2022-07-25T02:20:37;100747.38;;;18.35;84.14
71805;BME280;59654;52.216;5.616;2022-07-25T02:21:08;100745.44;;;18.37;83.98
71805;BME280;59654;52.216;5.616;2022-07-25T02:21:39;100740.03;;;18.37;84.55
71805;BME280;59654;52.216;5.616;2022-07-25T02:22:10;100747.16;;;18.38;84.83
71805;BME280;59654;52.216;5.616;2022-07-25T02:22:41;100746.19;;;18.39;84.80
71805;BME280;59654;52.216;5.616;2022-07-25T02:23:12;100749.75;;;18.39;84.38
71805;BME280;59654;52.216;5.616;2022-07-25T02:23:43;100745.56;;;18.35;84.56
71805;BME280;59654;52.216;5.616;2022-07-25T02:24:15;100747.72;;;18.30;84.47
71805;BME280;59654;52.216;5.616;2022-07-25T02:24:45;100740.84;;;18.26;84.43
71805;BME280;59654;52.216;5.616;2022-07-25T02:25:16;100738.34;;;18.23;83.90
71805;BME280;59654;52.216;5.616;2022-07-25T02:25:47;100735.66;;;18.23;84.39
71805;BME280;59654;52.216;5.616;2022-07-25T02:26:18;100741.03;;;18.23;84.66
71805;BME280;59654;52.216;5.616;2022-07-25T02:26:48;100743.75;;;18.23;84.49
71805;BME280;59654;52.216;5.616;2022-07-25T02:27:19;100744.59;;;18.23;84.14
71805;BME280;59654;52.216;5.616;2022-07-25T02:27:50;100738.34;;;18.23;85.31
71805;BME280;59654;52.216;5.616;2022-07-25T02:28:21;100740.28;;;18.21;85.58
71805;BME280;59654;52.216;5.616;2022-07-25T02:28:52;100739.44;;;18.20;84.91
71805;BME280;59654;52.216;5.616;2022-07-25T02:29:23;100742.88;;;18.22;84.09
71805;BME280;59654;52.216;5.616;2022-07-25T02:29:54;100740.06;;;18.24;83.61
71805;BME280;59654;52.216;5.616;2022-07-25T02:30:25;100745.38;;;18.25;83.86
71805;BME280;59654;52.216;5.616;2022-07-25T02:30:56;100747.09;;;18.26;84.14
71805;BME280;59654;52.216;5.616;2022-07-25T02:31:26;100740.69;;;18.27;83.86
71805;BME280;59654;52.216;5.616;2022-07-25T02:31:57;100738.75;;;18.29;84.92
71805;BME280;59654;52.216;5.616;2022-07-25T02:32:28;100738.53;;;18.33;84.43
71805;BME280;59654;52.216;5.616;2022-07-25T02:32:59;100736.47;;;18.36;83.92
71805;BME280;59654;52.216;5.616;2022-07-25T02:34:00;100736.91;;;18.43;83.56
71805;BME280;59654;52.216;5.616;2022-07-25T02:34:31;100738.50;;;18.45;83.66
71805;BME280;59654;52.216;5.616;2022-07-25T02:35:03;100743.69;;;18.48;83.16
71805;BME280;59654;52.216;5.616;2022-07-25T02:35:35;100743.47;;;18.51;83.39
71805;BME280;59654;52.216;5.616;2022-07-25T02:36:06;100744.22;;;18.53;82.54
71805;BME280;59654;52.216;5.616;2022-07-25T02:36:37;100744.00;;;18.56;82.99
71805;BME280;59654;52.216;5.616;2022-07-25T02:37:08;100746.69;;;18.56;83.23
71805;BME280;59654;52.216;5.616;2022-07-25T02:37:39;100745.94;;;18.54;83.88
71805;BME280;59654;52.216;5.616;2022-07-25T02:38:11;100752.44;;;18.52;84.04
71805;BME280;59654;52.216;5.616;2022-07-25T02:38:48;100745.28;;;18.51;85.35
71805;BME280;59654;52.216;5.616;2022-07-25T02:39:19;100749.72;;;18.52;84.54
71805;BME280;59654;52.216;5.616;2022-07-25T02:39:50;100747.88;;;18.52;84.95
71805;BME280;59654;52.216;5.616;2022-07-25T02:40:21;100739.03;;;18.50;85.67
71805;BME280;59654;52.216;5.616;2022-07-25T02:40:52;100744.53;;;18.49;85.80
71805;BME280;59654;52.216;5.616;2022-07-25T02:41:23;100745.63;;;18.46;85.29
71805;BME280;59654;52.216;5.616;2022-07-25T02:41:54;100746.72;;;18.44;85.28
71805;BME280;59654;52.216;5.616;2022-07-25T02:42:55;100729.88;;;18.40;85.72
71805;BME280;59654;52.216;5.616;2022-07-25T02:43:26;100734.31;;;18.41;85.37
71805;BME280;59654;52.216;5.616;2022-07-25T02:43:57;100737.03;;;18.41;84.53